sensor_id;sensor_type;location;lat;lon;timestamp;temperature;humidity
983;DHT22;480;48.124;11.578;2022-12-10T00:02:25;2.10;99.90
983;DHT22;480;48.124;11.578;2022-12-10T00:04:54;2.10;99.90
983;DHT22;480;48.124;11.578;2022-12-10T00:07:23;2.00;99.90
983;DHT22;480;48.124;11.578;2022-12-10T00:09:50;2.10;99.90
983;DHT22;480;48.124;11.578;2022-12-10T00:12:17;2.40;99.90
983;DHT22;480;48.124;11.578;2022-12-10T00:14:44;2.60;99.90
983;DHT22;480;48.124;11.578;2022-12-10T00:17:11;2.60;99.90
983;DHT22;480;48.124;11.578;2022-12-10T00:19:38;2.60;99.90
983;DHT22;480;48.124;11.578;2022-12-10T00:22:06;2.50;99.90
983;DHT22;480;48.124;11.578;2022-12-10T00:24:33;2.60;99.90
983;DHT22;480;48.124;11.578;2022-12-10T00:27:00;2.70;99.90
983;DHT22;480;48.124;11.578;2022-12-10T00:29:27;2.90;99.90
983;DHT22;480;48.124;11.578;2022-12-10T00:31:54;3.00;99.90
983;DHT22;480;48.124;11.578;2022-12-10T00:34:22;3.00;99.90
983;DHT22;480;48.124;11.578;2022-12-10T00:36:49;3.10;99.90
983;DHT22;480;48.124;11.578;2022-12-10T00:39:19;3.00;99.90
983;DHT22;480;48.124;11.578;2022-12-10T00:41:47;3.10;99.90
983;DHT22;480;48.124;11.578;2022-12-10T00:44:15;3.20;99.90
983;DHT22;480;48.124;11.578;2022-12-10T00:46:42;3.30;99.90
983;DHT22;480;48.124;11.578;2022-12-10T00:49:09;3.30;99.90
983;DHT22;480;48.124;11.578;2022-12-10T00:51:36;3.10;99.90
983;DHT22;480;48.124;11.578;2022-12-10T00:54:04;3.00;99.90
983;DHT22;480;48.124;11.578;2022-12-10T00:56:33;3.00;99.90
983;DHT22;480;48.124;11.578;2022-12-10T00:59:01;3.00;99.90
983;DHT22;480;48.124;11.578;2022-12-10T01:01:31;2.90;99.90
983;DHT22;480;48.124;11.578;2022-12-10T01:03:59;2.50;99.90
983;DHT22;480;48.124;11.578;2022-12-10T01:06:29;2.40;99.90
983;DHT22;480;48.124;11.578;2022-12-10T01:08:58;2.60;99.90
983;DHT22;480;48.124;11.578;2022-12-10T01:11:28;2.70;99.90
983;DHT22;480;48.124;11.578;2022-12-10T01:13:57;2.90;99.90
983;DHT22;480;48.124;11.578;2022-12-10T01:16:25;3.00;99.90
983;DHT22;480;48.124;11.578;2022-12-10T01:18:53;3.00;99.90
983;DHT22;480;48.124;11.578;2022-12-10T01:21:20;3.10;99.90
983;DHT22;480;48.124;11.578;2022-12-10T01:23:49;3.00;99.90
983;DHT22;480;48.124;11.578;2022-12-10T01:26:18;3.00;99.90
983;DHT22;480;48.124;11.578;2022-12-10T01:28:46;3.20;99.90
983;DHT22;480;48.124;11.578;2022-12-10T01:31:16;3.30;99.90
983;DHT22;480;48.124;11.578;2022-12-10T01:33:43;3.40;99.90
983;DHT22;480;48.124;11.578;2022-12-10T01:36:13;3.50;99.90
983;DHT22;480;48.124;11.578;2022-12-10T01:38:40;3.50;99.90
983;DHT22;480;48.124;11.578;2022-12-10T01:41:10;3.40;99.90
983;DHT22;480;48.124;11.578;2022-12-10T01:43:54;3.40;99.90
983;DHT22;480;48.124;11.578;2022-12-10T01:46:25;3.30;99.90
983;DHT22;480;48.124;11.578;2022-12-10T01:48:52;3.20;99.90
983;DHT22;480;48.124;11.578;2022-12-10T01:51:20;3.00;99.90
983;DHT22;480;48.124;11.578;2022-12-10T01:53:47;3.10;99.90
983;DHT22;480;48.124;11.578;2022-12-10T01:56:17;3.20;99.90
983;DHT22;480;48.124;11.578;2022-12-10T01:58:45;3.10;99.90
983;DHT22;480;48.124;11.578;2022-12-10T02:01:16;3.20;99.90
983;DHT22;480;48.124;11.578;2022-12-10T02:03:54;3.20;99.90
983;DHT22;480;48.124;11.578;2022-12-10T02:06:35;3.10;99.90
983;DHT22;480;48.124;11.578;2022-12-10T02:09:11;3.00;99.90
983;DHT22;480;48.124;11.578;2022-12-10T02:11:42;2.90;99.90
983;DHT22;480;48.124;11.578;2022-12-10T02:14:15;2.90;99.90
983;DHT22;480;48.124;11.578;2022-12-10T02:16:48;2.80;99.90
983;DHT22;480;48.124;11.578;2022-12-10T02:19:26;2.70;99.90
983;DHT22;480;48.124;11.578;2022-12-10T02:21:55;2.80;99.90
983;DHT22;480;48.124;11.578;2022-12-10T02:24:25;2.70;99.90
983;DHT22;480;48.124;11.578;2022-12-10T02:27:00;2.70;99.90
983;DHT22;480;48.124;11.578;2022-12-10T02:29:31;2.70;99.90
983;DHT22;480;48.124;11.578;2022-12-10T02:32:02;2.80;99.90
983;DHT22;480;48.124;11.578;2022-12-10T02:34:33;2.60;99.90
983;DHT22;480;48.124;11.578;2022-12-10T02:37:03;2.50;99.90
983;DHT22;480;48.124;11.578;2022-12-10T02:39:35;2.60;99.90
983;DHT22;480;48.124;11.578;2022-12-10T02:42:05;2.40;99.90
983;DHT22;480;48.124;11.578;2022-12-10T02:44:36;2.50;99.90
983;DHT22;480;48.124;11.578;2022-12-10T02:47:05;2.60;99.90
983;DHT22;480;48.124;11.578;2022-12-10T02:49:34;2.50;99.90
983;DHT22;480;48.124;11.578;2022-12-10T02:52:07;2.60;99.90
983;DHT22;480;48.124;11.578;2022-12-10T02:54:38;2.50;99.90
983;DHT22;480;48.124;11.578;2022-12-10T02:57:15;2.60;99.90
983;DHT22;480;48.124;11.578;2022-12-10T03:03:09;2.60;99.90
983;DHT22;480;48.124;11.578;2022-12-10T03:05:44;2.70;99.90
983;DHT22;480;48.124;11.578;2022-12-10T03:08:16;2.90;99.90
983;DHT22;480;48.124;11.578;2022-12-10T03:10:49;2.80;99.90
983;DHT22;480;48.124;11.578;2022-12-10T03:13:21;2.90;99.90
983;DHT22;480;48.124;11.578;2022-12-10T03:15:52;2.90;99.90
983;DHT22;480;48.124;11.578;2022-12-10T03:18:23;2.90;99.90
983;DHT22;480;48.124;11.578;2022-12-10T03:20:53;3.00;99.90
983;DHT22;480;48.124;11.578;2022-12-10T03:23:21;3.10;99.90
983;DHT22;480;48.124;11.578;2022-12-10T03:25:50;3.10;99.90
983;DHT22;480;48.124;11.578;2022-12-10T03:28:18;3.00;99.90
983;DHT22;480;48.124;11.578;2022-12-10T03:30:47;3.00;99.90
983;DHT22;480;48.124;11.578;2022-12-10T03:33:16;3.00;99.90
983;DHT22;480;48.124;11.578;2022-12-10T03:35:43;2.90;99.90
983;DHT22;480;48.124;11.578;2022-12-10T03:38:11;2.80;99.90
983;DHT22;480;48.124;11.578;2022-12-10T03:40:39;2.50;99.90
983;DHT22;480;48.124;11.578;2022-12-10T03:43:06;2.10;99.90
983;DHT22;480;48.124;11.578;2022-12-10T03:45:33;1.90;99.90
983;DHT22;480;48.124;11.578;2022-12-10T03:48:00;2.10;99.90
983;DHT22;480;48.124;11.578;2022-12-10T03:50:28;2.20;99.90
983;DHT22;480;48.124;11.578;2022-12-10T03:52:55;1.90;99.90
983;DHT22;480;48.124;11.578;2022-12-10T03:55:22;1.90;99.90
983;DHT22;480;48.124;11.578;2022-12-10T03:57:49;1.80;99.90
983;DHT22;480;48.124;11.578;2022-12-10T04:00:16;1.60;99.90
983;DHT22;480;48.124;11.578;2022-12-10T04:02:44;1.60;99.90
983;DHT22;480;48.124;11.578;2022-12-10T04:05:11;1.70;99.90
983;DHT22;480;48.124;11.578;2022-12-10T04:07:39;1.60;99.90
983;DHT22;480;48.124;11.578;2022-12-10T04:10:07;1.70;99.90
983;DHT22;480;48.124;11.578;2022-12-10T04:12:34;1.60;99.90
983;DHT22;480;48.124;11.578;2022-12-10T04:15:01;1.70;99.90
983;DHT22;480;48.124;11.578;2022-12-10T04:17:45;1.80;99.90
983;DHT22;480;48.124;11.578;2022-12-10T04:20:12;2.00;99.90
983;DHT22;480;48.124;11.578;2022-12-10T04:22:54;1.90;99.90
983;DHT22;480;48.124;11.578;2022-12-10T04:25:39;1.90;99.90
983;DHT22;480;48.124;11.578;2022-12-10T04:28:23;2.00;99.90
983;DHT22;480;48.124;11.578;2022-12-10T04:30:50;1.70;99.90
983;DHT22;480;48.124;11.578;2022-12-10T04:33:17;1.70;99.90
983;DHT22;480;48.124;11.578;2022-12-10T04:35:44;1.50;99.90
983;DHT22;480;48.124;11.578;2022-12-10T04:38:12;1.50;99.90
983;DHT22;480;48.124;11.578;2022-12-10T04:40:39;1.60;99.90
983;DHT22;480;48.124;11.578;2022-12-10T04:43:06;1.70;99.90
983;DHT22;480;48.124;11.578;2022-12-10T04:45:34;1.80;99.90
983;DHT22;480;48.124;11.578;2022-12-10T04:48:02;1.80;99.90
983;DHT22;480;48.124;11.578;2022-12-10T04:50:29;2.00;99.90
983;DHT22;480;48.124;11.578;2022-12-10T04:52:58;2.20;99.90
983;DHT22;480;48.124;11.578;2022-12-10T04:55:26;2.30;99.90
983;DHT22;480;48.124;11.578;2022-12-10T04:57:53;2.50;99.90
983;DHT22;480;48.124;11.578;2022-12-10T05:00:20;2.50;99.90
983;DHT22;480;48.124;11.578;2022-12-10T05:02:48;2.30;99.90
983;DHT22;480;48.124;11.578;2022-12-10T05:05:16;2.20;99.90
983;DHT22;480;48.124;11.578;2022-12-10T05:07:43;2.40;99.90
983;DHT22;480;48.124;11.578;2022-12-10T05:10:10;2.30;99.90
983;DHT22;480;48.124;11.578;2022-12-10T05:12:39;2.20;99.90
983;DHT22;480;48.124;11.578;2022-12-10T05:15:07;2.20;99.90
983;DHT22;480;48.124;11.578;2022-12-10T05:17:34;2.20;99.90
983;DHT22;480;48.124;11.578;2022-12-10T05:20:01;2.30;99.90
983;DHT22;480;48.124;11.578;2022-12-10T05:22:28;2.30;99.90
983;DHT22;480;48.124;11.578;2022-12-10T05:25:13;2.50;99.90
983;DHT22;480;48.124;11.578;2022-12-10T05:27:41;2.40;99.90
983;DHT22;480;48.124;11.578;2022-12-10T05:30:09;2.40;99.90
983;DHT22;480;48.124;11.578;2022-12-10T05:32:36;2.50;99.90
983;DHT22;480;48.124;11.578;2022-12-10T05:35:04;2.50;99.90
983;DHT22;480;48.124;11.578;2022-12-10T05:37:32;2.40;99.90
983;DHT22;480;48.124;11.578;2022-12-10T05:39:59;2.00;99.90
983;DHT22;480;48.124;11.578;2022-12-10T05:42:26;1.90;99.90
983;DHT22;480;48.124;11.578;2022-12-10T05:44:55;1.60;99.90
983;DHT22;480;48.124;11.578;2022-12-10T05:47:22;1.80;99.90
983;DHT22;480;48.124;11.578;2022-12-10T05:49:49;1.90;99.90
983;DHT22;480;48.124;11.578;2022-12-10T05:52:16;1.60;99.90
983;DHT22;480;48.124;11.578;2022-12-10T05:54:43;1.60;99.90
983;DHT22;480;48.124;11.578;2022-12-10T05:57:10;1.60;99.90
983;DHT22;480;48.124;11.578;2022-12-10T05:59:37;1.70;99.90
983;DHT22;480;48.124;11.578;2022-12-10T06:02:05;1.70;99.90
983;DHT22;480;48.124;11.578;2022-12-10T06:04:32;1.80;99.90
983;DHT22;480;48.124;11.578;2022-12-10T06:06:59;1.90;99.90
983;DHT22;480;48.124;11.578;2022-12-10T06:09:26;2.00;99.90
983;DHT22;480;48.124;11.578;2022-12-10T06:11:53;2.20;99.90
983;DHT22;480;48.124;11.578;2022-12-10T06:14:20;2.30;99.90
983;DHT22;480;48.124;11.578;2022-12-10T06:16:47;2.30;99.90
983;DHT22;480;48.124;11.578;2022-12-10T06:19:15;2.10;99.90
983;DHT22;480;48.124;11.578;2022-12-10T06:21:42;2.20;99.90
983;DHT22;480;48.124;11.578;2022-12-10T06:24:09;2.20;99.90
983;DHT22;480;48.124;11.578;2022-12-10T06:26:36;2.30;99.90
983;DHT22;480;48.124;11.578;2022-12-10T06:29:03;2.40;99.90
983;DHT22;480;48.124;11.578;2022-12-10T06:31:31;2.40;99.90
983;DHT22;480;48.124;11.578;2022-12-10T06:33:58;2.40;99.90
983;DHT22;480;48.124;11.578;2022-12-10T06:36:26;2.40;99.90
983;DHT22;480;48.124;11.578;2022-12-10T06:38:53;2.30;99.90
983;DHT22;480;48.124;11.578;2022-12-10T06:41:22;2.20;99.90
983;DHT22;480;48.124;11.578;2022-12-10T06:43:49;2.20;99.90
983;DHT22;480;48.124;11.578;2022-12-10T06:46:18;2.20;99.90
983;DHT22;480;48.124;11.578;2022-12-10T06:48:46;2.10;99.90
983;DHT22;480;48.124;11.578;2022-12-10T06:51:14;2.20;99.90
983;DHT22;480;48.124;11.578;2022-12-10T06:53:42;2.30;99.90
983;DHT22;480;48.124;11.578;2022-12-10T06:56:13;2.30;99.90
983;DHT22;480;48.124;11.578;2022-12-10T06:58:41;2.50;99.90
983;DHT22;480;48.124;11.578;2022-12-10T07:01:11;2.20;99.90
983;DHT22;480;48.124;11.578;2022-12-10T07:03:39;2.20;99.90
983;DHT22;480;48.124;11.578;2022-12-10T07:06:09;2.20;99.90
983;DHT22;480;48.124;11.578;2022-12-10T07:08:38;2.10;99.90
983;DHT22;480;48.124;11.578;2022-12-10T07:11:08;1.70;99.90
983;DHT22;480;48.124;11.578;2022-12-10T07:13:35;1.70;99.90
983;DHT22;480;48.124;11.578;2022-12-10T07:16:03;1.40;99.90
983;DHT22;480;48.124;11.578;2022-12-10T07:18:37;1.40;99.90
983;DHT22;480;48.124;11.578;2022-12-10T07:21:13;1.60;99.90
983;DHT22;480;48.124;11.578;2022-12-10T07:23:40;1.50;99.90
983;DHT22;480;48.124;11.578;2022-12-10T07:26:09;1.50;99.90
983;DHT22;480;48.124;11.578;2022-12-10T07:28:36;1.50;99.90
983;DHT22;480;48.124;11.578;2022-12-10T07:31:04;1.90;99.90
983;DHT22;480;48.124;11.578;2022-12-10T07:33:31;2.00;99.90
983;DHT22;480;48.124;11.578;2022-12-10T07:35:58;1.90;99.90
983;DHT22;480;48.124;11.578;2022-12-10T07:38:25;1.90;99.90
983;DHT22;480;48.124;11.578;2022-12-10T07:40:52;1.80;99.90
983;DHT22;480;48.124;11.578;2022-12-10T07:43:20;1.90;99.90
983;DHT22;480;48.124;11.578;2022-12-10T07:45:47;1.90;99.90
983;DHT22;480;48.124;11.578;2022-12-10T07:48:16;2.00;99.90
983;DHT22;480;48.124;11.578;2022-12-10T07:50:43;2.10;99.90
983;DHT22;480;48.124;11.578;2022-12-10T07:53:10;2.30;99.90
983;DHT22;480;48.124;11.578;2022-12-10T07:55:37;2.20;99.90
983;DHT22;480;48.124;11.578;2022-12-10T07:58:04;2.20;99.90
983;DHT22;480;48.124;11.578;2022-12-10T08:00:32;2.20;99.90
983;DHT22;480;48.124;11.578;2022-12-10T08:02:59;2.30;99.90
983;DHT22;480;48.124;11.578;2022-12-10T08:05:26;2.40;99.90
983;DHT22;480;48.124;11.578;2022-12-10T08:07:53;2.40;99.90
983;DHT22;480;48.124;11.578;2022-12-10T08:10:20;2.50;99.90
983;DHT22;480;48.124;11.578;2022-12-10T08:12:47;2.60;99.90
983;DHT22;480;48.124;11.578;2022-12-10T08:15:14;2.70;99.90
983;DHT22;480;48.124;11.578;2022-12-10T08:17:42;2.70;99.90
983;DHT22;480;48.124;11.578;2022-12-10T08:20:09;2.80;99.90
983;DHT22;480;48.124;11.578;2022-12-10T08:22:36;2.60;99.90
983;DHT22;480;48.124;11.578;2022-12-10T08:25:05;2.40;99.90
983;DHT22;480;48.124;11.578;2022-12-10T08:27:32;2.40;99.90
983;DHT22;480;48.124;11.578;2022-12-10T08:29:59;2.20;99.90
983;DHT22;480;48.124;11.578;2022-12-10T08:32:26;2.20;99.90
983;DHT22;480;48.124;11.578;2022-12-10T08:34:54;2.40;99.90
983;DHT22;480;48.124;11.578;2022-12-10T08:37:21;2.40;99.90
983;DHT22;480;48.124;11.578;2022-12-10T08:39:48;2.10;99.90
983;DHT22;480;48.124;11.578;2022-12-10T08:42:15;2.20;99.90
983;DHT22;480;48.124;11.578;2022-12-10T08:44:42;2.50;99.90
983;DHT22;480;48.124;11.578;2022-12-10T08:47:09;2.50;99.90
983;DHT22;480;48.124;11.578;2022-12-10T08:49:36;2.70;99.90
983;DHT22;480;48.124;11.578;2022-12-10T08:52:05;2.60;99.90
983;DHT22;480;48.124;11.578;2022-12-10T08:54:32;2.60;99.90
983;DHT22;480;48.124;11.578;2022-12-10T08:56:58;2.70;99.90
983;DHT22;480;48.124;11.578;2022-12-10T08:59:25;2.70;99.90
983;DHT22;480;48.124;11.578;2022-12-10T09:01:52;2.50;99.90
983;DHT22;480;48.124;11.578;2022-12-10T09:04:19;2.50;99.90
983;DHT22;480;48.124;11.578;2022-12-10T09:06:46;2.60;99.90
983;DHT22;480;48.124;11.578;2022-12-10T09:09:15;2.60;99.90
983;DHT22;480;48.124;11.578;2022-12-10T09:11:42;2.70;99.90
983;DHT22;480;48.124;11.578;2022-12-10T09:14:09;2.70;99.90
983;DHT22;480;48.124;11.578;2022-12-10T09:16:36;2.60;99.90
983;DHT22;480;48.124;11.578;2022-12-10T09:19:05;2.70;99.90
983;DHT22;480;48.124;11.578;2022-12-10T09:21:33;2.80;99.90
983;DHT22;480;48.124;11.578;2022-12-10T09:24:00;2.90;99.90
983;DHT22;480;48.124;11.578;2022-12-10T09:26:28;2.90;99.90
983;DHT22;480;48.124;11.578;2022-12-10T09:28:55;2.90;99.90
983;DHT22;480;48.124;11.578;2022-12-10T09:31:23;2.90;99.90
983;DHT22;480;48.124;11.578;2022-12-10T09:33:51;2.80;99.90
983;DHT22;480;48.124;11.578;2022-12-10T09:36:19;2.60;99.90
983;DHT22;480;48.124;11.578;2022-12-10T09:38:47;2.40;99.90
983;DHT22;480;48.124;11.578;2022-12-10T09:44:22;2.40;99.90
983;DHT22;480;48.124;11.578;2022-12-10T09:46:54;2.50;99.90
983;DHT22;480;48.124;11.578;2022-12-10T09:49:32;2.60;99.90
983;DHT22;480;48.124;11.578;2022-12-10T09:52:02;2.50;99.90
983;DHT22;480;48.124;11.578;2022-12-10T09:54:32;2.20;99.90
983;DHT22;480;48.124;11.578;2022-12-10T09:57:01;2.50;99.90
983;DHT22;480;48.124;11.578;2022-12-10T09:59:36;2.50;99.90
983;DHT22;480;48.124;11.578;2022-12-10T10:02:20;2.50;99.90
983;DHT22;480;48.124;11.578;2022-12-10T10:04:48;2.60;99.90
983;DHT22;480;48.124;11.578;2022-12-10T10:07:20;2.70;99.90
983;DHT22;480;48.124;11.578;2022-12-10T10:09:50;2.60;99.90
983;DHT22;480;48.124;11.578;2022-12-10T10:12:19;2.80;99.90
983;DHT22;480;48.124;11.578;2022-12-10T10:14:48;2.70;99.90
983;DHT22;480;48.124;11.578;2022-12-10T10:17:19;2.80;99.90
983;DHT22;480;48.124;11.578;2022-12-10T10:19:46;2.80;99.90
983;DHT22;480;48.124;11.578;2022-12-10T10:22:15;3.00;99.90
983;DHT22;480;48.124;11.578;2022-12-10T10:24:43;2.80;99.90
983;DHT22;480;48.124;11.578;2022-12-10T10:27:14;2.90;99.90
983;DHT22;480;48.124;11.578;2022-12-10T10:29:42;3.00;99.90
983;DHT22;480;48.124;11.578;2022-12-10T10:32:14;3.00;99.90
983;DHT22;480;48.124;11.578;2022-12-10T10:34:42;3.10;99.90
983;DHT22;480;48.124;11.578;2022-12-10T10:37:15;3.10;99.90
983;DHT22;480;48.124;11.578;2022-12-10T10:39:47;2.90;99.90
983;DHT22;480;48.124;11.578;2022-12-10T10:42:23;2.60;99.90
983;DHT22;480;48.124;11.578;2022-12-10T10:44:52;2.70;99.90
983;DHT22;480;48.124;11.578;2022-12-10T10:47:28;2.50;99.90
983;DHT22;480;48.124;11.578;2022-12-10T10:49:56;2.60;99.90
983;DHT22;480;48.124;11.578;2022-12-10T10:52:28;2.70;99.90
983;DHT22;480;48.124;11.578;2022-12-10T10:54:55;2.70;99.90
983;DHT22;480;48.124;11.578;2022-12-10T10:57:24;2.70;99.90
983;DHT22;480;48.124;11.578;2022-12-10T10:59:54;2.50;99.90
983;DHT22;480;48.124;11.578;2022-12-10T11:02:26;2.60;99.90
983;DHT22;480;48.124;11.578;2022-12-10T11:04:58;2.80;99.90
983;DHT22;480;48.124;11.578;2022-12-10T11:07:34;2.90;99.90
983;DHT22;480;48.124;11.578;2022-12-10T11:10:03;2.90;99.90
983;DHT22;480;48.124;11.578;2022-12-10T11:12:35;3.10;99.90
983;DHT22;480;48.124;11.578;2022-12-10T11:17:57;3.20;99.90
983;DHT22;480;48.124;11.578;2022-12-10T11:20:26;3.20;99.90
983;DHT22;480;48.124;11.578;2022-12-10T11:22:55;3.20;99.90
983;DHT22;480;48.124;11.578;2022-12-10T11:25:33;3.20;99.90
983;DHT22;480;48.124;11.578;2022-12-10T11:28:09;3.20;99.90
983;DHT22;480;48.124;11.578;2022-12-10T11:30:44;3.10;99.90
983;DHT22;480;48.124;11.578;2022-12-10T11:33:21;3.10;99.90
983;DHT22;480;48.124;11.578;2022-12-10T11:35:59;2.70;99.90
983;DHT22;480;48.124;11.578;2022-12-10T11:38:30;2.70;99.90
983;DHT22;480;48.124;11.578;2022-12-10T11:41:06;2.90;99.90
983;DHT22;480;48.124;11.578;2022-12-10T11:44:08;2.80;99.90
983;DHT22;480;48.124;11.578;2022-12-10T11:49:34;2.80;99.90
983;DHT22;480;48.124;11.578;2022-12-10T11:52:09;2.60;99.90
983;DHT22;480;48.124;11.578;2022-12-10T11:54:58;2.50;99.90
983;DHT22;480;48.124;11.578;2022-12-10T11:57:37;2.60;99.90
983;DHT22;480;48.124;11.578;2022-12-10T12:00:18;2.70;99.90
983;DHT22;480;48.124;11.578;2022-12-10T12:02:58;2.60;99.90
983;DHT22;480;48.124;11.578;2022-12-10T12:05:41;2.60;99.90
983;DHT22;480;48.124;11.578;2022-12-10T12:08:19;2.70;99.90
983;DHT22;480;48.124;11.578;2022-12-10T12:11:11;2.80;99.90
983;DHT22;480;48.124;11.578;2022-12-10T12:13:46;3.00;99.90
983;DHT22;480;48.124;11.578;2022-12-10T12:16:19;3.10;99.90
983;DHT22;480;48.124;11.578;2022-12-10T12:18:51;3.20;99.90
983;DHT22;480;48.124;11.578;2022-12-10T12:21:23;3.20;99.90
983;DHT22;480;48.124;11.578;2022-12-10T12:23:52;3.30;99.90
983;DHT22;480;48.124;11.578;2022-12-10T12:26:25;3.40;99.90
983;DHT22;480;48.124;11.578;2022-12-10T12:29:06;3.30;99.90
983;DHT22;480;48.124;11.578;2022-12-10T12:31:37;3.40;99.90
983;DHT22;480;48.124;11.578;2022-12-10T12:34:13;3.40;99.90
983;DHT22;480;48.124;11.578;2022-12-10T12:36:45;3.20;99.90
983;DHT22;480;48.124;11.578;2022-12-10T12:39:20;3.20;99.90
983;DHT22;480;48.124;11.578;2022-12-10T12:41:54;3.20;99.90
983;DHT22;480;48.124;11.578;2022-12-10T12:44:26;3.10;99.90
983;DHT22;480;48.124;11.578;2022-12-10T12:46:58;3.20;99.90
983;DHT22;480;48.124;11.578;2022-12-10T12:49:31;3.30;99.90
983;DHT22;480;48.124;11.578;2022-12-10T12:52:07;3.10;99.90
983;DHT22;480;48.124;11.578;2022-12-10T12:54:43;3.20;99.90
983;DHT22;480;48.124;11.578;2022-12-10T12:57:14;3.00;99.90
983;DHT22;480;48.124;11.578;2022-12-10T12:59:53;3.10;99.90
983;DHT22;480;48.124;11.578;2022-12-10T13:02:31;3.30;99.90
983;DHT22;480;48.124;11.578;2022-12-10T13:05:04;3.30;99.90
983;DHT22;480;48.124;11.578;2022-12-10T13:07:34;3.30;99.90
983;DHT22;480;48.124;11.578;2022-12-10T13:10:23;3.30;99.90
983;DHT22;480;48.124;11.578;2022-12-10T13:13:06;3.30;99.90
983;DHT22;480;48.124;11.578;2022-12-10T13:15:35;3.30;99.90
983;DHT22;480;48.124;11.578;2022-12-10T13:21:28;3.40;99.90
983;DHT22;480;48.124;11.578;2022-12-10T13:24:08;3.50;99.90
983;DHT22;480;48.124;11.578;2022-12-10T13:26:40;3.40;99.90
983;DHT22;480;48.124;11.578;2022-12-10T13:29:24;3.30;99.90
983;DHT22;480;48.124;11.578;2022-12-10T13:32:03;3.20;99.90
983;DHT22;480;48.124;11.578;2022-12-10T13:34:33;3.20;99.90
983;DHT22;480;48.124;11.578;2022-12-10T13:37:34;3.00;99.90
983;DHT22;480;48.124;11.578;2022-12-10T13:40:21;2.90;99.90
983;DHT22;480;48.124;11.578;2022-12-10T13:42:57;3.00;99.90
983;DHT22;480;48.124;11.578;2022-12-10T13:45:42;3.00;99.90
983;DHT22;480;48.124;11.578;2022-12-10T13:48:26;2.80;99.90
983;DHT22;480;48.124;11.578;2022-12-10T13:51:12;2.60;99.90
983;DHT22;480;48.124;11.578;2022-12-10T13:53:49;2.50;99.90
983;DHT22;480;48.124;11.578;2022-12-10T13:56:25;2.60;99.90
983;DHT22;480;48.124;11.578;2022-12-10T13:59:03;2.60;99.90
983;DHT22;480;48.124;11.578;2022-12-10T14:01:39;2.70;99.90
983;DHT22;480;48.124;11.578;2022-12-10T14:07:11;2.60;99.90
983;DHT22;480;48.124;11.578;2022-12-10T14:09:45;2.40;99.90
983;DHT22;480;48.124;11.578;2022-12-10T14:12:20;2.40;99.90
983;DHT22;480;48.124;11.578;2022-12-10T14:14:54;2.30;99.90
983;DHT22;480;48.124;11.578;2022-12-10T14:17:29;2.20;99.90
983;DHT22;480;48.124;11.578;2022-12-10T14:19:57;2.20;99.90
983;DHT22;480;48.124;11.578;2022-12-10T14:22:30;2.10;99.90
983;DHT22;480;48.124;11.578;2022-12-10T14:25:00;2.10;99.90
983;DHT22;480;48.124;11.578;2022-12-10T14:27:44;2.20;99.90
983;DHT22;480;48.124;11.578;2022-12-10T14:30:16;2.20;99.90
983;DHT22;480;48.124;11.578;2022-12-10T14:32:44;2.30;99.90
983;DHT22;480;48.124;11.578;2022-12-10T14:35:13;2.40;99.90
983;DHT22;480;48.124;11.578;2022-12-10T14:37:43;2.50;99.90
983;DHT22;480;48.124;11.578;2022-12-10T14:40:18;2.30;99.90
983;DHT22;480;48.124;11.578;2022-12-10T14:42:48;2.30;99.90
983;DHT22;480;48.124;11.578;2022-12-10T14:45:18;2.10;99.90
983;DHT22;480;48.124;11.578;2022-12-10T14:47:47;2.20;99.90
983;DHT22;480;48.124;11.578;2022-12-10T14:50:16;2.10;99.90
983;DHT22;480;48.124;11.578;2022-12-10T14:52:49;2.10;99.90
983;DHT22;480;48.124;11.578;2022-12-10T14:55:20;2.00;99.90
983;DHT22;480;48.124;11.578;2022-12-10T14:57:53;1.90;99.90
983;DHT22;480;48.124;11.578;2022-12-10T15:00:22;1.80;99.90
983;DHT22;480;48.124;11.578;2022-12-10T15:02:53;1.80;99.90
983;DHT22;480;48.124;11.578;2022-12-10T15:05:24;1.80;99.90
983;DHT22;480;48.124;11.578;2022-12-10T15:07:54;1.90;99.90
983;DHT22;480;48.124;11.578;2022-12-10T15:10:26;1.80;99.90
983;DHT22;480;48.124;11.578;2022-12-10T15:12:57;1.80;99.90
983;DHT22;480;48.124;11.578;2022-12-10T15:15:28;1.80;99.90
983;DHT22;480;48.124;11.578;2022-12-10T15:17:59;1.90;99.90
983;DHT22;480;48.124;11.578;2022-12-10T15:20:29;2.00;99.90
983;DHT22;480;48.124;11.578;2022-12-10T15:23:11;2.10;99.90
983;DHT22;480;48.124;11.578;2022-12-10T15:25:45;2.20;99.90
983;DHT22;480;48.124;11.578;2022-12-10T15:28:29;2.20;99.90
983;DHT22;480;48.124;11.578;2022-12-10T15:31:08;2.20;99.90
983;DHT22;480;48.124;11.578;2022-12-10T15:33:38;2.10;99.90
983;DHT22;480;48.124;11.578;2022-12-10T15:36:21;2.20;99.90
983;DHT22;480;48.124;11.578;2022-12-10T15:38:50;2.00;99.90
983;DHT22;480;48.124;11.578;2022-12-10T15:41:43;2.10;99.90
983;DHT22;480;48.124;11.578;2022-12-10T15:44:26;2.10;99.90
983;DHT22;480;48.124;11.578;2022-12-10T15:46:59;2.10;99.90
983;DHT22;480;48.124;11.578;2022-12-10T15:49:26;2.10;99.90
983;DHT22;480;48.124;11.578;2022-12-10T15:51:53;2.10;99.90
983;DHT22;480;48.124;11.578;2022-12-10T15:54:22;2.10;99.90
983;DHT22;480;48.124;11.578;2022-12-10T15:56:49;2.00;99.90
983;DHT22;480;48.124;11.578;2022-12-10T15:59:17;2.00;99.90
983;DHT22;480;48.124;11.578;2022-12-10T16:01:46;1.80;99.90
983;DHT22;480;48.124;11.578;2022-12-10T16:04:13;1.60;99.90
983;DHT22;480;48.124;11.578;2022-12-10T16:06:40;1.60;99.90
983;DHT22;480;48.124;11.578;2022-12-10T16:09:08;1.50;99.90
983;DHT22;480;48.124;11.578;2022-12-10T16:11:35;1.40;99.90
983;DHT22;480;48.124;11.578;2022-12-10T16:14:03;1.40;99.90
983;DHT22;480;48.124;11.578;2022-12-10T16:16:32;1.30;99.90
983;DHT22;480;48.124;11.578;2022-12-10T16:19:00;1.20;99.90
983;DHT22;480;48.124;11.578;2022-12-10T16:21:27;1.20;99.90
983;DHT22;480;48.124;11.578;2022-12-10T16:23:54;1.40;99.90
983;DHT22;480;48.124;11.578;2022-12-10T16:26:22;1.30;99.90
983;DHT22;480;48.124;11.578;2022-12-10T16:28:50;1.20;99.90
983;DHT22;480;48.124;11.578;2022-12-10T16:31:19;1.30;99.90
983;DHT22;480;48.124;11.578;2022-12-10T16:33:47;1.20;99.90
983;DHT22;480;48.124;11.578;2022-12-10T16:36:18;1.20;99.90
983;DHT22;480;48.124;11.578;2022-12-10T16:38:45;1.20;99.90
983;DHT22;480;48.124;11.578;2022-12-10T16:41:17;1.30;99.90
983;DHT22;480;48.124;11.578;2022-12-10T16:43:45;1.30;99.90
983;DHT22;480;48.124;11.578;2022-12-10T16:46:12;1.30;99.90
983;DHT22;480;48.124;11.578;2022-12-10T16:48:39;1.20;99.90
983;DHT22;480;48.124;11.578;2022-12-10T16:51:14;1.20;99.90
983;DHT22;480;48.124;11.578;2022-12-10T16:53:44;1.20;99.90
983;DHT22;480;48.124;11.578;2022-12-10T16:56:14;1.30;99.90
983;DHT22;480;48.124;11.578;2022-12-10T16:58:41;1.30;99.90
983;DHT22;480;48.124;11.578;2022-12-10T17:01:19;1.30;99.90
983;DHT22;480;48.124;11.578;2022-12-10T17:03:46;1.30;99.90
983;DHT22;480;48.124;11.578;2022-12-10T17:06:13;1.30;99.90
983;DHT22;480;48.124;11.578;2022-12-10T17:08:41;1.30;99.90
983;DHT22;480;48.124;11.578;2022-12-10T17:11:16;1.10;99.90
983;DHT22;480;48.124;11.578;2022-12-10T17:14:02;1.20;99.90
983;DHT22;480;48.124;11.578;2022-12-10T17:16:31;1.20;99.90